Time;durP1;ratioP1;P1;durP2;ratioP2;P2;SDS_P1;SDS_P2;PMS_P1;PMS_P2;Temp;Humidity;BMP_temperature;BMP_pressure;BME280_temperature;BME280_humidity;BME280_pressure;Samples;Min_cycle;Max_cycle;Signal;HPM_P1;HPM_P2
2023/09/18 00:01:56;;;;;;;1.08;0.88;;;19.00;57.50;;;;;;6100908;23;20151;-79
2023/09/18 00:04:22;;;;;;;0.80;0.80;;;19.00;57.60;;;;;;6151669;22;20139;-79
2023/09/18 00:06:49;;;;;;;1.08;0.90;;;19.10;57.60;;;;;;6151510;22;20178;-80
2023/09/18 00:09:16;;;;;;;1.10;1.00;;;19.10;57.60;;;;;;6150854;22;20193;-79
2023/09/18 00:11:41;;;;;;;0.98;0.90;;;19.10;57.60;;;;;;6151271;22;20193;-81
2023/09/18 00:14:09;;;;;;;1.02;0.93;;;19.00;57.60;;;;;;6125410;23;20181;-77
2023/09/18 00:16:35;;;;;;;0.80;0.80;;;19.00;57.60;;;;;;6125535;23;20269;-79
2023/09/18 00:19:02;;;;;;;0.60;0.60;;;19.00;57.70;;;;;;6151553;22;20156;-81
2023/09/18 00:21:30;;;;;;;0.90;0.90;;;19.00;57.60;;;;;;6151423;22;20135;-81
2023/09/18 00:23:57;;;;;;;1.10;0.93;;;19.00;57.70;;;;;;6151350;22;20187;-81
2023/09/18 00:26:24;;;;;;;0.70;0.70;;;19.10;57.70;;;;;;6126042;23;20162;-82
2023/09/18 00:28:50;;;;;;;1.33;1.10;;;19.00;57.60;;;;;;6151405;23;20135;-80
2023/09/18 00:31:16;;;;;;;0.85;0.85;;;19.00;57.70;;;;;;6101283;23;20463;-79
2023/09/18 00:33:41;;;;;;;1.20;1.10;;;19.00;57.70;;;;;;6125616;23;20226;-81
2023/09/18 00:36:07;;;;;;;1.10;1.00;;;19.00;57.70;;;;;;6150962;22;20559;-79
2023/09/18 00:38:33;;;;;;;0.80;0.80;;;19.00;57.70;;;;;;6100986;23;20577;-83
2023/09/18 00:40:59;;;;;;;1.10;0.98;;;19.00;57.80;;;;;;6151679;22;20147;-79
2023/09/18 00:43:24;;;;;;;1.02;0.93;;;19.00;57.80;;;;;;6125141;23;20567;-81
2023/09/18 00:45:50;;;;;;;0.70;0.70;;;19.00;57.80;;;;;;6125769;23;20181;-80
2023/09/18 00:48:16;;;;;;;1.00;0.90;;;19.00;58.40;;;;;;6150955;22;20495;-83
2023/09/18 00:50:44;;;;;;;1.10;0.90;;;19.00;57.80;;;;;;6150805;22;20135;-79
2023/09/18 00:53:10;;;;;;;0.88;0.88;;;19.00;57.80;;;;;;6151795;22;20218;-81
2023/09/18 00:55:37;;;;;;;1.00;0.90;;;19.00;57.80;;;;;;6124847;23;20180;-79
2023/09/18 00:58:03;;;;;;;1.20;1.10;;;18.90;57.80;;;;;;6150570;22;20143;-81
2023/09/18 01:00:29;;;;;;;1.20;0.80;;;19.00;57.80;;;;;;6125175;23;20144;-80
2023/09/18 01:02:55;;;;;;;1.17;1.00;;;19.00;57.80;;;;;;6125109;23;20221;-82
2023/09/18 01:05:21;;;;;;;0.98;0.82;;;19.00;57.80;;;;;;6125425;23;20151;-80
2023/09/18 01:07:47;;;;;;;1.02;0.80;;;19.00;57.90;;;;;;6150117;22;20191;-81
2023/09/18 01:10:16;;;;;;;1.15;1.05;;;19.00;58.60;;;;;;6100875;23;20139;-82
2023/09/18 01:12:46;;;;;;;1.00;0.90;;;19.00;57.80;;;;;;6126087;23;20131;-79
2023/09/18 01:15:31;;;;;;;1.20;1.00;;;19.00;57.80;;;;;;6151111;23;20559;-81
2023/09/18 01:17:56;;;;;;;0.90;0.88;;;19.00;57.90;;;;;;6151323;23;20458;-78
2023/09/18 01:20:22;;;;;;;1.10;1.00;;;18.90;57.90;;;;;;6151198;22;20655;-80
2023/09/18 01:22:49;;;;;;;1.00;0.90;;;18.90;57.90;;;;;;6150927;22;20613;-81
2023/09/18 01:25:15;;;;;;;0.80;0.80;;;19.00;57.90;;;;;;6120061;23;20195;-81
2023/09/18 01:27:42;;;;;;;0.85;0.80;;;18.90;57.90;;;;;;6120091;23;20199;-81
2023/09/18 01:30:08;;;;;;;0.85;0.80;;;19.00;57.90;;;;;;6121906;23;20261;-79
2023/09/18 01:32:34;;;;;;;0.70;0.70;;;19.00;58.00;;;;;;6121509;23;20141;-81
2023/09/18 01:35:01;;;;;;;1.00;0.90;;;19.00;58.00;;;;;;6121372;23;20186;-79
2023/09/18 01:37:27;;;;;;;1.05;0.95;;;19.00;58.00;;;;;;6120346;23;20159;-80
2023/09/18 01:39:53;;;;;;;1.35;1.00;;;19.00;58.00;;;;;;6121496;23;20143;-80
2023/09/18 01:42:19;;;;;;;1.27;0.98;;;18.90;58.00;;;;;;6095960;23;20139;-81
2023/09/18 01:44:46;;;;;;;0.90;0.80;;;19.00;58.10;;;;;;6119824;23;20136;-82
2023/09/18 01:47:14;;;;;;;1.02;0.90;;;19.00;58.00;;;;;;6121265;23;20254;-79
2023/09/18 01:49:40;;;;;;;1.10;0.90;;;19.00;58.10;;;;;;6121127;23;20494;-83
2023/09/18 01:52:07;;;;;;;0.90;0.90;;;18.90;58.10;;;;;;6120035;23;20140;-79
2023/09/18 01:54:33;;;;;;;0.80;0.80;;;19.00;58.00;;;;;;6119943;23;20607;-79
2023/09/18 01:56:59;;;;;;;0.80;0.80;;;19.00;58.10;;;;;;6120053;23;20182;-81
2023/09/18 01:59:25;;;;;;;0.80;0.80;;;19.00;58.10;;;;;;6119878;23;20140;-78
2023/09/18 02:01:51;;;;;;;1.05;0.80;;;19.00;58.10;;;;;;6121514;23;20197;-79
2023/09/18 02:04:17;;;;;;;0.88;0.85;;;19.00;58.20;;;;;;6095904;23;20239;-80
2023/09/18 02:06:50;;;;;;;1.02;0.93;;;19.00;58.20;;;;;;6120164;23;20172;-80
2023/09/18 02:09:16;;;;;;;0.88;0.80;;;18.90;58.10;;;;;;6218238;23;20159;-81
2023/09/18 02:11:43;;;;;;;0.98;0.90;;;18.90;58.10;;;;;;6118766;23;20140;-79
2023/09/18 02:14:09;;;;;;;1.15;0.90;;;18.90;58.10;;;;;;6119365;23;20144;-81
2023/09/18 02:16:36;;;;;;;1.00;0.88;;;18.90;58.20;;;;;;6120474;23;20586;-80
2023/09/18 02:19:03;;;;;;;1.00;0.82;;;18.90;58.20;;;;;;6121477;23;20144;-81
2023/09/18 02:21:30;;;;;;;0.93;0.82;;;19.00;58.20;;;;;;6121665;23;20140;-81
2023/09/18 02:23:56;;;;;;;1.00;0.82;;;18.90;58.10;;;;;;6119267;22;20282;-79
2023/09/18 02:26:22;;;;;;;1.00;0.90;;;18.90;58.20;;;;;;6121768;23;20186;-79
2023/09/18 02:28:48;;;;;;;0.80;0.80;;;18.90;58.20;;;;;;6121412;23;20219;-80
2023/09/18 02:31:13;;;;;;;0.80;0.80;;;19.00;58.20;;;;;;6119867;23;20168;-79
2023/09/18 02:33:39;;;;;;;0.73;0.73;;;18.90;58.20;;;;;;6121383;23;20136;-81
2023/09/18 02:36:05;;;;;;;0.80;0.80;;;18.90;58.20;;;;;;6119896;23;20146;-79
2023/09/18 02:38:32;;;;;;;1.00;0.90;;;18.90;58.20;;;;;;6121310;23;20491;-81
2023/09/18 02:40:58;;;;;;;1.17;0.80;;;18.90;58.20;;;;;;6120958;23;20132;-80
2023/09/18 02:43:24;;;;;;;1.17;0.98;;;19.00;58.30;;;;;;6120097;23;20155;-79
2023/09/18 02:45:50;;;;;;;0.98;0.85;;;18.90;58.20;;;;;;6121315;23;20572;-82
2023/09/18 02:48:16;;;;;;;1.05;0.90;;;18.90;58.30;;;;;;6121135;23;20181;-80
2023/09/18 02:50:42;;;;;;;1.08;0.90;;;18.90;58.20;;;;;;6121472;23;20140;-80
2023/09/18 02:53:08;;;;;;;0.80;0.73;;;18.90;58.20;;;;;;6121273;23;20144;-81
2023/09/18 02:55:34;;;;;;;0.95;0.85;;;18.90;58.20;;;;;;6121200;23;20179;-80
2023/09/18 02:58:00;;;;;;;0.80;0.80;;;18.90;58.30;;;;;;6121692;23;20564;-79
2023/09/18 03:00:25;;;;;;;0.90;0.90;;;18.90;58.30;;;;;;6121203;23;20163;-80
2023/09/18 03:02:51;;;;;;;1.23;0.80;;;18.90;58.30;;;;;;6121329;23;20213;-80
2023/09/18 03:05:17;;;;;;;1.27;1.00;;;18.90;58.30;;;;;;6121253;23;20152;-81
2023/09/18 03:07:44;;;;;;;1.00;0.90;;;18.90;58.40;;;;;;6094085;23;20504;-80
2023/09/18 03:10:13;;;;;;;0.80;0.80;;;18.90;58.40;;;;;;6120919;23;20168;-82
2023/09/18 03:12:40;;;;;;;0.85;0.75;;;18.90;58.40;;;;;;6121043;23;20163;-81
2023/09/18 03:15:06;;;;;;;1.00;0.90;;;18.90;58.40;;;;;;6121000;23;20210;-80
2023/09/18 03:17:33;;;;;;;1.02;0.93;;;18.90;58.40;;;;;;6121374;23;20168;-79
2023/09/18 03:20:00;;;;;;;0.80;0.80;;;18.90;58.40;;;;;;6121349;23;20364;-83
2023/09/18 03:22:26;;;;;;;1.08;0.82;;;18.90;58.50;;;;;;6120874;23;20137;-81
2023/09/18 03:24:52;;;;;;;0.98;0.80;;;18.90;58.40;;;;;;6143012;23;20202;-81
2023/09/18 03:27:17;;;;;;;0.80;0.80;;;18.90;58.50;;;;;;6151690;22;20274;-82
2023/09/18 03:29:43;;;;;;;0.90;0.90;;;18.90;58.50;;;;;;6151562;22;20223;-81
2023/09/18 03:32:12;;;;;;;0.90;0.80;;;18.90;58.50;;;;;;6151899;22;20529;-81
2023/09/18 03:34:38;;;;;;;1.02;0.93;;;18.90;58.50;;;;;;6151379;22;20128;-80
2023/09/18 03:37:04;;;;;;;1.35;1.10;;;18.90;58.40;;;;;;6151192;23;20148;-82
2023/09/18 03:39:30;;;;;;;0.85;0.85;;;18.90;58.50;;;;;;6151768;22;20142;-82
2023/09/18 03:41:55;;;;;;;0.93;0.90;;;18.80;58.40;;;;;;6125807;23;20128;-82
2023/09/18 03:44:22;;;;;;;0.90;0.80;;;18.90;58.50;;;;;;6151724;22;20163;-81
2023/09/18 03:46:48;;;;;;;1.00;0.90;;;18.80;58.50;;;;;;6151285;23;20176;-80
2023/09/18 03:49:14;;;;;;;0.82;0.70;;;18.90;58.60;;;;;;6152036;22;20484;-80
2023/09/18 03:51:40;;;;;;;0.90;0.75;;;18.80;58.50;;;;;;6151770;22;20140;-81
2023/09/18 03:54:06;;;;;;;0.70;0.70;;;18.80;58.50;;;;;;6125680;23;20135;-82
2023/09/18 03:56:32;;;;;;;1.33;0.88;;;18.90;58.50;;;;;;6125540;23;20151;-81
2023/09/18 03:59:00;;;;;;;1.08;0.98;;;18.80;58.50;;;;;;6151345;22;20155;-81
2023/09/18 04:01:27;;;;;;;0.88;0.80;;;18.80;58.50;;;;;;6126448;23;20207;-78
2023/09/18 04:03:53;;;;;;;0.80;0.80;;;18.80;58.50;;;;;;6151813;22;20136;-81
2023/09/18 04:06:20;;;;;;;0.80;0.80;;;18.90;58.60;;;;;;6125760;23;20186;-80
2023/09/18 04:08:46;;;;;;;0.98;0.85;;;18.80;58.60;;;;;;6150515;23;20501;-79
2023/09/18 04:11:12;;;;;;;0.88;0.88;;;18.80;58.60;;;;;;6125134;23;20144;-80
2023/09/18 04:13:39;;;;;;;0.85;0.70;;;18.80;58.60;;;;;;6151396;22;20215;-79
2023/09/18 04:16:05;;;;;;;1.25;0.93;;;18.80;58.60;;;;;;6202292;23;20152;-80
2023/09/18 04:18:32;;;;;;;0.82;0.82;;;18.90;58.60;;;;;;6151409;22;20227;-82
2023/09/18 04:20:58;;;;;;;0.95;0.70;;;18.80;58.70;;;;;;6177365;23;20259;-81
2023/09/18 04:23:25;;;;;;;0.63;0.63;;;18.90;58.70;;;;;;6151171;22;20156;-81
2023/09/18 04:25:52;;;;;;;0.80;0.80;;;18.80;59.30;;;;;;6152145;23;20143;-81
2023/09/18 04:28:20;;;;;;;0.70;0.70;;;18.80;58.70;;;;;;6204432;23;20188;-79
2023/09/18 04:30:46;;;;;;;1.00;0.80;;;18.80;58.70;;;;;;6126640;23;20559;-81
2023/09/18 04:33:14;;;;;;;0.93;0.80;;;18.80;58.70;;;;;;6109912;23;20607;-80
2023/09/18 04:35:39;;;;;;;1.15;0.90;;;18.80;58.70;;;;;;6163910;22;20144;-81
2023/09/18 04:38:06;;;;;;;0.90;0.80;;;18.80;58.70;;;;;;6156917;22;20143;-80
2023/09/18 04:40:33;;;;;;;1.00;0.85;;;18.80;58.70;;;;;;6125674;23;20143;-81
2023/09/18 04:42:59;;;;;;;0.68;0.68;;;18.80;58.70;;;;;;6151840;22;20167;-82
2023/09/18 04:45:25;;;;;;;1.02;0.90;;;18.80;58.70;;;;;;6125647;23;20138;-82
2023/09/18 04:47:52;;;;;;;0.82;0.65;;;18.80;58.70;;;;;;6151168;22;20281;-80
2023/09/18 04:50:17;;;;;;;0.85;0.85;;;18.80;58.70;;;;;;6101096;23;20847;-82
2023/09/18 04:52:43;;;;;;;0.75;0.75;;;18.80;58.70;;;;;;6150899;22;20135;-81
2023/09/18 04:55:09;;;;;;;1.00;0.70;;;18.80;58.70;;;;;;6125047;23;20217;-81
2023/09/18 04:57:35;;;;;;;0.95;0.80;;;18.80;58.70;;;;;;6125082;23;20143;-80
2023/09/18 05:00:02;;;;;;;1.00;0.90;;;18.80;58.70;;;;;;6125372;23;20643;-81
2023/09/18 05:02:28;;;;;;;1.00;0.80;;;18.80;58.70;;;;;;6125245;23;20158;-79
2023/09/18 05:04:56;;;;;;;1.02;0.80;;;18.80;58.70;;;;;;6151010;22;20567;-81
2023/09/18 05:07:25;;;;;;;0.95;0.80;;;18.90;58.70;;;;;;6123800;23;20507;-81
2023/09/18 05:09:57;;;;;;;0.90;0.70;;;18.90;58.80;;;;;;6200349;23;20156;-81
2023/09/18 05:12:23;;;;;;;1.48;0.90;;;18.90;58.80;;;;;;6074375;23;20159;-83
2023/09/18 05:14:50;;;;;;;0.73;0.73;;;18.80;58.70;;;;;;6150130;22;20466;-80
2023/09/18 05:17:19;;;;;;;0.88;0.88;;;18.90;58.90;;;;;;6150590;23;20147;-81
2023/09/18 05:19:45;;;;;;;0.95;0.90;;;18.80;58.70;;;;;;6176902;23;20213;-80
2023/09/18 05:22:10;;;;;;;0.90;0.60;;;18.80;58.70;;;;;;6151103;22;20140;-80
2023/09/18 05:24:38;;;;;;;1.00;0.90;;;18.90;58.80;;;;;;6150618;22;20198;-81
2023/09/18 05:27:06;;;;;;;0.95;0.85;;;18.90;58.80;;;;;;6150920;23;20607;-80
2023/09/18 05:29:31;;;;;;;0.70;0.70;;;18.80;59.40;;;;;;6151266;22;20136;-81
2023/09/18 05:31:57;;;;;;;0.90;0.85;;;18.90;58.80;;;;;;6150767;22;20143;-78
2023/09/18 05:34:23;;;;;;;1.08;0.90;;;18.80;58.70;;;;;;6151193;22;20213;-79
2023/09/18 05:36:49;;;;;;;0.73;0.70;;;18.90;58.80;;;;;;6125134;23;20186;-80
2023/09/18 05:39:16;;;;;;;0.70;0.70;;;18.90;58.80;;;;;;6124901;23;20186;-81
2023/09/18 05:41:42;;;;;;;1.15;0.90;;;18.90;58.70;;;;;;6150985;22;20138;-81
2023/09/18 05:44:09;;;;;;;0.68;0.65;;;18.90;58.60;;;;;;6124503;23;20142;-81
2023/09/18 05:46:36;;;;;;;0.70;0.65;;;18.90;58.50;;;;;;6124687;23;20135;-80
2023/09/18 05:49:03;;;;;;;0.85;0.85;;;18.90;58.50;;;;;;6151035;22;20574;-80
2023/09/18 05:51:29;;;;;;;0.90;0.77;;;18.90;58.50;;;;;;6151268;22;20448;-79
2023/09/18 05:53:55;;;;;;;0.63;0.63;;;18.80;58.40;;;;;;6124777;23;20135;-81
2023/09/18 05:56:20;;;;;;;0.73;0.73;;;18.80;58.60;;;;;;6151001;22;20135;-80
2023/09/18 05:58:46;;;;;;;1.15;0.80;;;18.80;58.60;;;;;;6151431;22;20583;-82
2023/09/18 06:01:12;;;;;;;0.70;0.70;;;18.80;58.70;;;;;;6151730;22;20132;-79
2023/09/18 06:03:37;;;;;;;0.75;0.70;;;18.70;58.70;;;;;;6151350;22;20770;-82
2023/09/18 06:06:04;;;;;;;0.60;0.60;;;18.80;58.90;;;;;;6125040;23;20567;-81
2023/09/18 06:08:31;;;;;;;0.70;0.68;;;18.80;58.80;;;;;;6124449;23;20190;-83
2023/09/18 06:10:57;;;;;;;0.70;0.70;;;18.80;58.90;;;;;;6124604;23;20151;-82
2023/09/18 06:13:24;;;;;;;0.88;0.60;;;18.80;59.00;;;;;;6125819;23;20544;-81
2023/09/18 06:15:52;;;;;;;0.73;0.68;;;18.80;59.00;;;;;;6125066;23;20244;-84
2023/09/18 06:18:20;;;;;;;0.52;0.52;;;18.80;59.10;;;;;;6101017;23;20162;-87
2023/09/18 06:20:46;;;;;;;0.60;0.60;;;18.80;59.10;;;;;;6150794;22;20549;-82
2023/09/18 06:23:12;;;;;;;0.80;0.68;;;18.80;59.10;;;;;;6124327;22;20159;-81
2023/09/18 06:25:39;;;;;;;0.55;0.55;;;18.90;59.20;;;;;;6100727;23;20152;-85
2023/09/18 06:28:05;;;;;;;0.50;0.50;;;18.90;59.20;;;;;;6124805;23;20187;-85
2023/09/18 06:30:32;;;;;;;0.73;0.60;;;18.80;59.20;;;;;;6125180;23;20205;-87
2023/09/18 06:32:58;;;;;;;0.50;0.50;;;18.90;59.20;;;;;;6099671;23;20144;-82
2023/09/18 06:35:24;;;;;;;0.50;0.50;;;18.90;59.40;;;;;;6125247;23;20131;-81
2023/09/18 06:37:50;;;;;;;0.65;0.60;;;19.00;59.20;;;;;;6150215;22;20151;-85
2023/09/18 06:40:16;;;;;;;0.73;0.68;;;19.00;59.20;;;;;;6100145;23;20144;-83
2023/09/18 06:42:42;;;;;;;0.98;0.50;;;19.00;59.20;;;;;;6150701;22;20143;-85
2023/09/18 06:45:08;;;;;;;0.60;0.50;;;19.00;59.30;;;;;;6124733;23;20210;-83
2023/09/18 06:47:34;;;;;;;0.80;0.70;;;19.10;59.20;;;;;;6124512;23;20175;-86
2023/09/18 06:50:05;;;;;;;0.65;0.50;;;19.10;59.10;;;;;;6100917;23;20590;-82
2023/09/18 06:52:30;;;;;;;0.50;0.50;;;19.10;59.20;;;;;;6125326;23;20212;-83
2023/09/18 06:54:57;;;;;;;0.40;0.40;;;19.10;59.40;;;;;;6151568;22;20575;-83
2023/09/18 06:57:24;;;;;;;0.95;0.57;;;19.10;59.60;;;;;;6125974;23;20140;-85
2023/09/18 06:59:53;;;;;;;0.50;0.50;;;19.10;59.60;;;;;;6102133;23;20132;-84
2023/09/18 07:02:23;;;;;;;0.40;0.40;;;19.10;59.60;;;;;;6103390;23;20587;-86
2023/09/18 07:04:53;;;;;;;0.57;0.57;;;19.10;59.60;;;;;;6206214;23;20242;-83
2023/09/18 07:07:24;;;;;;;0.60;0.60;;;19.20;59.50;;;;;;6204373;23;20190;-85
2023/09/18 07:09:51;;;;;;;0.60;0.60;;;19.20;59.60;;;;;;6104228;23;20178;-81
2023/09/18 07:12:19;;;;;;;0.85;0.63;;;19.10;59.80;;;;;;6127687;23;20180;-86
2023/09/18 07:14:46;;;;;;;1.13;0.70;;;19.20;60.00;;;;;;6127917;23;20127;-85
2023/09/18 07:17:11;;;;;;;0.68;0.68;;;19.20;60.50;;;;;;6101901;23;20147;-84
2023/09/18 07:19:37;;;;;;;1.38;0.45;;;19.20;60.20;;;;;;6101655;23;20158;-83
2023/09/18 07:22:03;;;;;;;0.60;0.60;;;19.20;60.10;;;;;;6126159;23;20132;-84
2023/09/18 07:24:29;;;;;;;0.55;0.50;;;19.20;60.10;;;;;;6125297;22;20194;-82
2023/09/18 07:26:55;;;;;;;0.50;0.50;;;19.20;60.40;;;;;;6101009;23;20183;-84
2023/09/18 07:29:20;;;;;;;1.38;0.50;;;19.20;60.60;;;;;;6151875;23;20159;-85
2023/09/18 07:31:46;;;;;;;0.50;0.50;;;19.20;60.60;;;;;;6127001;23;20571;-82
2023/09/18 07:34:13;;;;;;;0.75;0.65;;;19.20;60.60;;;;;;6101975;23;20187;-84
2023/09/18 07:36:39;;;;;;;0.60;0.60;;;19.20;60.50;;;;;;6125719;23;20147;-80
2023/09/18 07:39:05;;;;;;;0.75;0.57;;;19.30;60.30;;;;;;6101021;23;20182;-81
2023/09/18 07:41:31;;;;;;;0.88;0.77;;;19.20;60.70;;;;;;6125797;23;20144;-83
2023/09/18 07:43:59;;;;;;;0.60;0.60;;;19.20;60.60;;;;;;6101154;23;20166;-86
2023/09/18 07:46:24;;;;;;;0.85;0.40;;;19.30;60.70;;;;;;6125784;23;20824;-85
2023/09/18 07:48:50;;;;;;;0.57;0.47;;;19.30;60.70;;;;;;6102025;23;20179;-84
2023/09/18 07:51:16;;;;;;;0.60;0.60;;;19.30;60.90;;;;;;6126330;23;20254;-85
2023/09/18 07:53:42;;;;;;;0.50;0.43;;;19.40;60.80;;;;;;6152030;22;20160;-82
2023/09/18 07:56:08;;;;;;;0.68;0.60;;;19.40;60.90;;;;;;6152332;23;20140;-80
2023/09/18 07:58:38;;;;;;;0.75;0.70;;;19.40;61.00;;;;;;6125645;23;20559;-82
2023/09/18 08:01:05;;;;;;;0.50;0.50;;;19.40;60.80;;;;;;6126914;23;20128;-82
2023/09/18 08:03:30;;;;;;;0.40;0.40;;;19.30;61.00;;;;;;6152098;22;20439;-83
2023/09/18 08:05:57;;;;;;;0.52;0.50;;;19.30;61.40;;;;;;6125677;23;20594;-85
2023/09/18 08:08:23;;;;;;;0.60;0.60;;;19.20;61.30;;;;;;6125232;23;20168;-83
2023/09/18 08:10:50;;;;;;;0.60;0.60;;;19.30;61.70;;;;;;6101810;23;20135;-82
2023/09/18 08:13:16;;;;;;;0.77;0.50;;;19.20;61.90;;;;;;6101311;23;20136;-80
2023/09/18 08:15:43;;;;;;;0.70;0.60;;;19.20;62.10;;;;;;6125629;23;20219;-84
2023/09/18 08:18:10;;;;;;;0.73;0.60;;;19.20;62.10;;;;;;6125625;23;20127;-80
2023/09/18 08:20:42;;;;;;;0.43;0.43;;;19.20;62.20;;;;;;6151729;22;20135;-82
2023/09/18 08:23:12;;;;;;;0.68;0.55;;;19.20;62.40;;;;;;6151558;23;20140;-81
2023/09/18 08:25:37;;;;;;;0.50;0.50;;;19.20;62.50;;;;;;6125170;23;20254;-82
2023/09/18 08:28:04;;;;;;;1.02;0.68;;;19.20;62.70;;;;;;6125606;23;20203;-84
2023/09/18 08:30:30;;;;;;;0.40;0.40;;;19.20;62.80;;;;;;6151582;22;20139;-79
2023/09/18 08:32:56;;;;;;;1.13;0.70;;;19.20;63.10;;;;;;6151649;22;20212;-83
2023/09/18 08:35:22;;;;;;;0.60;0.50;;;19.10;63.30;;;;;;6101154;23;20167;-85
2023/09/18 08:37:48;;;;;;;0.50;0.50;;;19.00;63.40;;;;;;6101178;23;20158;-82
2023/09/18 08:40:14;;;;;;;1.38;0.65;;;19.10;63.40;;;;;;6151624;22;20162;-84
2023/09/18 08:42:45;;;;;;;1.40;0.70;;;19.20;63.60;;;;;;6125722;23;20835;-82
2023/09/18 08:45:12;;;;;;;0.82;0.70;;;19.00;63.60;;;;;;6151331;23;20139;-85
2023/09/18 08:47:40;;;;;;;1.55;0.60;;;19.10;63.60;;;;;;6151367;23;20175;-82
2023/09/18 08:50:07;;;;;;;0.85;0.50;;;19.10;63.60;;;;;;6125915;23;20143;-81
2023/09/18 08:52:32;;;;;;;1.75;0.70;;;19.10;63.40;;;;;;6151701;22;20623;-84
2023/09/18 08:54:58;;;;;;;1.20;0.63;;;19.10;63.40;;;;;;6125598;23;20178;-82
2023/09/18 08:57:24;;;;;;;1.73;0.80;;;19.20;63.30;;;;;;6125256;23;20178;-78
2023/09/18 08:59:50;;;;;;;1.30;0.50;;;19.20;63.30;;;;;;6125001;23;20163;-80
2023/09/18 09:02:16;;;;;;;2.85;0.50;;;19.10;63.30;;;;;;6125541;23;20136;-82
2023/09/18 09:04:42;;;;;;;2.90;0.60;;;19.10;63.40;;;;;;6125179;23;20270;-85
2023/09/18 09:07:08;;;;;;;1.35;0.70;;;19.20;63.30;;;;;;6151150;22;20502;-81
2023/09/18 09:09:34;;;;;;;0.90;0.70;;;19.20;63.00;;;;;;6124739;23;20144;-83
2023/09/18 09:11:59;;;;;;;0.80;0.80;;;19.20;62.60;;;;;;6125019;23;20437;-80
2023/09/18 09:14:28;;;;;;;0.70;0.55;;;19.30;62.50;;;;;;6151128;22;20207;-80
2023/09/18 09:16:54;;;;;;;0.90;0.55;;;19.30;62.40;;;;;;6151153;22;20143;-81
2023/09/18 09:19:29;;;;;;;0.60;0.55;;;19.20;62.50;;;;;;6100652;23;20198;-84
2023/09/18 09:21:56;;;;;;;0.68;0.60;;;19.20;62.80;;;;;;6125025;23;20218;-80
2023/09/18 09:24:40;;;;;;;0.70;0.70;;;19.10;63.00;;;;;;6150739;22;20191;-82
2023/09/18 09:27:06;;;;;;;0.80;0.50;;;19.20;63.00;;;;;;6151127;23;20167;-84
2023/09/18 09:30:00;;;;;;;0.85;0.65;;;19.20;63.00;;;;;;6129932;23;20158;-81
2023/09/18 09:32:35;;;;;;;0.75;0.60;;;19.20;63.00;;;;;;6154804;23;20182;-82
2023/09/18 09:35:07;;;;;;;0.73;0.60;;;19.20;63.00;;;;;;6079922;23;20159;-78
2023/09/18 09:37:32;;;;;;;0.80;0.60;;;19.20;62.80;;;;;;6105845;23;20311;-84
2023/09/18 09:40:14;;;;;;;0.60;0.60;;;19.20;62.70;;;;;;6151305;22;20496;-84
2023/09/18 09:42:40;;;;;;;0.68;0.60;;;19.30;62.80;;;;;;6151429;22;20219;-83
2023/09/18 09:45:12;;;;;;;0.50;0.50;;;19.20;62.90;;;;;;6125598;23;20138;-80
2023/09/18 09:47:37;;;;;;;0.60;0.60;;;19.30;62.70;;;;;;6151142;23;20225;-79
2023/09/18 09:50:09;;;;;;;0.93;0.73;;;19.20;62.70;;;;;;6128340;23;20567;-83
2023/09/18 09:52:35;;;;;;;0.63;0.50;;;19.20;62.60;;;;;;6126990;23;20178;-80
2023/09/18 09:55:04;;;;;;;0.73;0.73;;;19.30;62.70;;;;;;6127324;23;20166;-81
2023/09/18 09:57:31;;;;;;;0.82;0.50;;;19.30;62.50;;;;;;6127763;23;20226;-82
2023/09/18 10:00:21;;;;;;;0.80;0.70;;;19.40;62.40;;;;;;6101762;23;20143;-81
2023/09/18 10:02:47;;;;;;;0.57;0.52;;;19.30;62.40;;;;;;6105830;23;20143;-79
2023/09/18 10:05:13;;;;;;;0.73;0.73;;;19.30;62.30;;;;;;6126635;23;20143;-83
2023/09/18 10:07:39;;;;;;;0.60;0.60;;;19.30;62.40;;;;;;6125424;23;20171;-82
2023/09/18 10:10:05;;;;;;;0.65;0.60;;;19.30;62.40;;;;;;6078164;23;20179;-80
2023/09/18 10:12:33;;;;;;;0.63;0.60;;;19.30;62.40;;;;;;6126131;23;20131;-84
2023/09/18 10:14:59;;;;;;;0.47;0.47;;;19.30;62.30;;;;;;6127014;23;20175;-87
2023/09/18 10:17:26;;;;;;;0.70;0.60;;;19.20;62.40;;;;;;6126659;23;20167;-81
2023/09/18 10:20:16;;;;;;;0.75;0.70;;;19.30;62.30;;;;;;6053196;23;20234;-82
2023/09/18 10:22:46;;;;;;;0.50;0.50;;;19.20;62.30;;;;;;6125177;23;20231;-81
2023/09/18 10:25:18;;;;;;;0.65;0.65;;;19.30;62.20;;;;;;6177374;23;20230;-81
2023/09/18 10:27:46;;;;;;;0.47;0.47;;;19.30;62.10;;;;;;6101563;23;20245;-81
2023/09/18 10:30:12;;;;;;;0.60;0.60;;;19.20;62.10;;;;;;6151594;23;20132;-84
2023/09/18 10:32:39;;;;;;;0.70;0.63;;;19.20;62.10;;;;;;6125695;23;20631;-82
2023/09/18 10:35:07;;;;;;;0.95;0.60;;;19.20;62.10;;;;;;6151551;22;20139;-79
2023/09/18 10:37:34;;;;;;;0.60;0.50;;;19.20;62.20;;;;;;6125569;23;20174;-85
2023/09/18 10:40:00;;;;;;;0.50;0.50;;;19.20;62.10;;;;;;6125530;23;20244;-84
2023/09/18 10:42:27;;;;;;;0.50;0.50;;;19.30;62.10;;;;;;6151530;22;20551;-85
2023/09/18 10:44:53;;;;;;;1.02;0.60;;;19.20;62.10;;;;;;6152235;23;20195;-83
2023/09/18 10:47:19;;;;;;;0.60;0.60;;;19.20;62.10;;;;;;6126110;23;20167;-80
2023/09/18 10:49:45;;;;;;;0.90;0.70;;;19.30;62.10;;;;;;6078231;23;20150;-82
2023/09/18 10:52:16;;;;;;;0.55;0.55;;;19.30;62.10;;;;;;6129802;23;20175;-83
2023/09/18 10:54:42;;;;;;;0.57;0.55;;;19.20;62.20;;;;;;6084044;23;20178;-86
2023/09/18 10:57:07;;;;;;;0.70;0.70;;;19.30;62.20;;;;;;6159840;23;20136;-83
2023/09/18 10:59:33;;;;;;;1.90;1.00;;;19.20;62.30;;;;;;6134006;23;20140;-83
2023/09/18 11:02:06;;;;;;;4.95;1.70;;;19.30;62.30;;;;;;6132131;23;20140;-79
2023/09/18 11:04:32;;;;;;;14.27;1.45;;;19.30;62.30;;;;;;6151099;22;20208;-81
2023/09/18 11:07:05;;;;;;;12.95;1.77;;;19.30;63.20;;;;;;6125477;23;20175;-79
2023/09/18 11:09:33;;;;;;;5.28;1.38;;;19.30;62.30;;;;;;6201328;23;20253;-81
2023/09/18 11:12:03;;;;;;;5.70;1.27;;;19.20;62.40;;;;;;6126103;23;20143;-80
2023/09/18 11:14:49;;;;;;;8.35;1.58;;;19.20;62.50;;;;;;6076863;23;20223;-80
2023/09/18 11:17:33;;;;;;;7.90;1.73;;;19.20;62.50;;;;;;6126013;23;20536;-85
2023/09/18 11:20:20;;;;;;;4.38;1.30;;;19.20;62.70;;;;;;6125906;23;20436;-80
2023/09/18 11:23:18;;;;;;;6.50;1.48;;;19.20;62.80;;;;;;6150609;23;20595;-82
2023/09/18 11:25:47;;;;;;;10.18;1.20;;;19.10;62.80;;;;;;6100456;23;20156;-86
2023/09/18 11:28:18;;;;;;;4.15;1.23;;;19.20;62.90;;;;;;6100730;23;20179;-85
2023/09/18 11:30:57;;;;;;;4.72;1.25;;;19.20;62.90;;;;;;6125971;23;20128;-80
2023/09/18 11:33:39;;;;;;;2.60;1.23;;;19.20;62.90;;;;;;6106385;23;20144;-84
2023/09/18 11:36:32;;;;;;;3.22;1.17;;;19.30;62.90;;;;;;6110501;23;20132;-78
2023/09/18 11:39:03;;;;;;;5.18;1.10;;;19.20;63.00;;;;;;6206127;23;20152;-78
2023/09/18 11:41:30;;;;;;;5.18;1.05;;;19.20;63.00;;;;;;6111929;23;20199;-79
2023/09/18 11:44:40;;;;;;;11.13;1.52;;;19.20;63.10;;;;;;6134427;23;20132;-80
2023/09/18 11:47:16;;;;;;;14.90;1.83;;;19.20;63.10;;;;;;6122992;23;20213;-82
2023/09/18 11:49:54;;;;;;;13.93;1.98;;;19.20;63.00;;;;;;6160811;23;20127;-82
2023/09/18 11:52:25;;;;;;;13.13;2.20;;;19.30;63.20;;;;;;6062570;23;20159;-82
2023/09/18 11:54:51;;;;;;;12.40;1.70;;;19.30;63.10;;;;;;6084007;23;20565;-82
2023/09/18 11:57:19;;;;;;;12.07;2.10;;;19.30;63.30;;;;;;6110113;23;20147;-80
2023/09/18 11:59:50;;;;;;;14.82;1.50;;;19.30;63.00;;;;;;6109897;23;20143;-80
2023/09/18 12:02:35;;;;;;;10.77;1.67;;;19.30;63.10;;;;;;6059441;23;20158;-81
2023/09/18 12:05:15;;;;;;;7.72;1.50;;;19.30;63.20;;;;;;6133854;23;20148;-79
2023/09/18 12:07:44;;;;;;;4.75;1.10;;;19.20;63.30;;;;;;6106208;23;20196;-86
2023/09/18 12:10:11;;;;;;;7.20;1.40;;;19.30;63.40;;;;;;6130815;23;20124;-81
2023/09/18 12:12:37;;;;;;;6.40;1.33;;;19.20;63.30;;;;;;6103687;23;20158;-77
2023/09/18 12:15:03;;;;;;;3.83;1.20;;;19.20;63.30;;;;;;6128602;23;20547;-84
2023/09/18 12:17:29;;;;;;;6.00;1.35;;;19.20;63.40;;;;;;6129967;23;20552;-80
2023/09/18 12:19:55;;;;;;;7.35;1.23;;;19.20;63.40;;;;;;6153842;22;20158;-80
2023/09/18 12:22:26;;;;;;;22.63;2.65;;;19.20;63.30;;;;;;6129640;23;20136;-82
2023/09/18 12:24:52;;;;;;;17.67;2.03;;;19.20;63.30;;;;;;6158144;22;20191;-82
2023/09/18 12:27:26;;;;;;;19.00;2.75;;;19.10;63.30;;;;;;6106017;23;20193;-80
2023/09/18 12:29:52;;;;;;;19.83;2.80;;;19.30;63.50;;;;;;6130022;23;20147;-85
2023/09/18 12:32:18;;;;;;;14.00;2.63;;;19.20;63.50;;;;;;6156302;22;20571;-81
2023/09/18 12:34:48;;;;;;;14.48;2.30;;;19.20;63.60;;;;;;6105191;23;20158;-86
2023/09/18 12:37:16;;;;;;;13.68;2.45;;;19.20;63.70;;;;;;6102799;23;20151;-83
2023/09/18 12:39:42;;;;;;;16.20;1.83;;;19.20;63.70;;;;;;6127646;23;20136;-80
2023/09/18 12:42:08;;;;;;;10.77;1.98;;;19.20;63.70;;;;;;6153211;22;20131;-82
2023/09/18 12:44:34;;;;;;;9.70;2.00;;;19.20;63.70;;;;;;6102844;23;20174;-83
2023/09/18 12:47:00;;;;;;;12.25;2.50;;;19.20;63.70;;;;;;6126570;23;20179;-84
2023/09/18 12:49:27;;;;;;;15.38;2.05;;;19.30;63.80;;;;;;6151898;22;20140;-81